Airfield :
LOGIN :

Register | Disclaimer

   EN    FR    IT 

 










Legend :    VFR   Marginal VFR   IFR   Intensive IFR   Very Intensive IFR
Visi :
Ceiling :
>= 8 km
>= 3000ft
5 to 8 km
1000 to 3000 ft
1500m to 5 km
500 to 1000 ft
800 to 1500m
200 to 500 ft
< 800m
< 200 ft
Symbols :   Thunderstorms  Fog  Heavy snow  Heavy precipitations  Wind > 20 kt
SIGMETs :     Misc.  Thunderstorms  Icing  Turbulence  Mountain Waves  Volcanic Ashes







- Airport Elevation : 38 ft
- IATA code : TRE
- Download approach charts


EGPU - Tiree

CURRENT METAR :
  • 181220Z 13031KT 7000 -RA SCT010 BKN017 BKN020 05/04 Q1005

EXPIRED METARs :
  • 181150Z 13030KT 6000 -RA BKN009 BKN018 05/04 Q1005
  • 181120Z 13030KT 7000 -RA BKN009 BKN016 05/03 Q1005
  • 181050Z 13031KT 7000 -RA BKN009 BKN017 BKN020 05/04 Q1005
  • 181020Z 13030KT 9000 -RA BKN010 BKN017 05/04 Q1005
  • 180950Z 13029KT 9000 -RA BKN010 BKN018 05/04 Q1006

TAF TAF EGPU
Valid from the 18 at 12:00 until the 18 at 19:00 UTC


181057Z 1812/1819 13027KT 9999 SCT010 BKN020
TEMPO 1812/1819 8000 -RA BKN009
PROB40
TEMPO 1812/1816 RADZ
No reported NOTAMs for that airfield.



MET'MAP, your aeronautical weather chart ! - Copyright ORBIFLY December 2007 - Disclaimer

ORBIFLY MET'MAP TEAM :

Programming & Development : Alexandra Zaïnal
Concept & Development : Baudouin d'Aumeries
Co-Development & Prog : Marc-Olivier Méhu
Technical & hardware support : Manuel Goepfert

Contact : metmap@orbifly.com




SOURCES & CREDITS :

   NOAA